MSC Turchia — A8IL9 — position and weather

sailwx.info

Track history (hours):
 
Tides and Currents Weather Stations Pressure Air Temp Water Temp Dewpoint Dewpoint Depression Visibility Wind Speed Wind Dir Waves Ship Positions

MSC Turchia

Last reported at 2014-Oct-21 19:32 UTC. Time now 2014-Oct-21 20:09 UTC.
Position N 51°30' E 000°30'.

Length 276 m; beam 40 m; draft 14 m.

Type: Ship (hazmat cat D). MMSI: 636091212.

Date/timePositionNaut miles runAvg speedWind from/ knotsBaromVisibWave heightAir tempDewpointWater temp
2014-Oct-21 19:32N 51°30' E 000°30'0 0.0
2014-Oct-21 18:32N 51°30' E 000°30'0 0.0
2014-Oct-21 17:32N 51°30' E 000°30'0 0.0
2014-Oct-21 16:32N 51°30' E 000°30'0 0.0
2014-Oct-21 15:32N 51°30' E 000°30'0 0.0
2014-Oct-21 14:32N 51°30' E 000°30'0 0.0
2014-Oct-21 13:32N 51°30' E 000°30'0 0.0
2014-Oct-21 12:32N 51°30' E 000°30'0 0.0
2014-Oct-21 11:32N 51°30' E 000°30'0 0.0
2014-Oct-21 10:32N 51°30' E 000°30'0 0.0
2014-Oct-21 09:32N 51°30' E 000°30'0 0.0
2014-Oct-21 08:32N 51°30' E 000°30'0 0.0
2014-Oct-21 07:32N 51°30' E 000°30'0 0.0
2014-Oct-21 06:29N 51°30' E 000°30'0 0.0
2014-Oct-21 05:32N 51°30' E 000°30'0 0.0
2014-Oct-21 04:32N 51°30' E 000°30'0 0.0
2014-Oct-21 03:32N 51°30' E 000°30'0 0.0
2014-Oct-21 02:32N 51°30' E 000°30'0 0.0
2014-Oct-21 01:32N 51°30' E 000°30'2 2.0
2014-Oct-21 00:33N 51°30' E 000°33'1010.3
2014-Oct-20 23:33N 51°29' E 000°50'1212.4
2014-Oct-20 22:33N 51°33' E 001°09'1515.4
2014-Oct-20 21:33N 51°43' E 001°28'1312.9
2014-Oct-20 20:34N 51°54' E 001°39'1 1.1
2014-Oct-20 19:33N 51°54' E 001°41'0 0.0
2014-Oct-20 18:33N 51°54' E 001°41'0 0.1
2014-Oct-20 17:33N 51°54' E 001°41'0 0.3
2014-Oct-20 16:33N 51°54' E 001°41'0 0.1
2014-Oct-20 15:33N 51°54' E 001°41'0 0.0
2014-Oct-20 14:33N 51°55' E 001°41'0 0.1
2014-Oct-20 13:33N 51°54' E 001°41'5 4.7
2014-Oct-20 12:33N 51°52' E 001°48'1313.1
2014-Oct-20 11:33N 51°39' E 001°50'1211.8
2014-Oct-20 10:33N 51°29' E 001°59'1211.7
2014-Oct-20 09:33N 51°22' E 002°14'1110.5
2014-Oct-20 08:32N 51°23' E 002°31'1010.1
2014-Oct-20 07:33N 51°25' E 002°47'1616.1
2014-Oct-20 06:34N 51°24' E 003°12'1515.0
2014-Oct-20 05:33N 51°26' E 003°36'9 9.5
2014-Oct-20 04:34N 51°21' E 003°49'1010.5
2014-Oct-20 03:33N 51°22' E 004°06'7 6.8
2014-Oct-20 02:33N 51°20' E 004°16'0 0.0
2014-Oct-20 01:33N 51°20' E 004°16'0 0.0
2014-Oct-20 00:33N 51°20' E 004°16'0 0.0
2014-Oct-19 23:33N 51°20' E 004°16'0 0.0
2014-Oct-19 22:33N 51°20' E 004°16'0 0.0
2014-Oct-19 21:33N 51°20' E 004°16'0 0.0
2014-Oct-19 20:33N 51°20' E 004°16'0 0.0
2014-Oct-19 19:33N 51°20' E 004°16'0 0.0
2014-Oct-19 18:33N 51°20' E 004°16'0 0.0
2014-Oct-19 17:33N 51°20' E 004°16'0 0.0
2014-Oct-19 16:33N 51°20' E 004°16'0 0.0
2014-Oct-19 15:33N 51°20' E 004°16'0 0.0
2014-Oct-19 14:33N 51°20' E 004°16'0 0.0
2014-Oct-19 13:33N 51°20' E 004°16'0 0.0
2014-Oct-19 12:33N 51°20' E 004°16'0 0.0
2014-Oct-19 11:33N 51°20' E 004°16'0 0.0
2014-Oct-19 10:33N 51°20' E 004°16'0 0.0
2014-Oct-19 09:33N 51°20' E 004°16'0 0.0
2014-Oct-19 08:33N 51°20' E 004°16'0 0.0
2014-Oct-19 07:33N 51°20' E 004°16'0 0.0
2014-Oct-19 06:33N 51°20' E 004°16'0 0.0
2014-Oct-19 05:33N 51°20' E 004°16'0 0.0
2014-Oct-19 04:34N 51°20' E 004°16'0 0.0
2014-Oct-19 03:33N 51°20' E 004°16'0 0.0
2014-Oct-19 02:33N 51°20' E 004°16'0 0.0
2014-Oct-19 01:34N 51°20' E 004°16'0 0.0
2014-Oct-19 00:33N 51°20' E 004°16'0 0.0
2014-Oct-18 23:33N 51°20' E 004°16'0 0.0
2014-Oct-18 22:33N 51°20' E 004°16'0 0.0
2014-Oct-18 21:33N 51°20' E 004°16'0 0.0
2014-Oct-18 20:33N 51°20' E 004°16'0 0.0
2014-Oct-18 19:33N 51°20' E 004°16'2 2.1
2014-Oct-18 18:33N 51°22' E 004°14'9 9.4
2014-Oct-18 17:34N 51°26' E 004°01'1111.3
2014-Oct-18 16:34N 51°23' E 003°43'8 8.4
2014-Oct-18 15:33N 51°25' E 003°30'1615.5
2014-Oct-18 14:33N 51°24' E 003°05'1111.2
2014-Oct-18 13:33N 51°35' E 003°10'1414.0
2014-Oct-18 12:33N 51°49' E 003°14'1615.9
2014-Oct-18 11:33N 52°04' E 003°22'3915.7
2014-Oct-18 09:04N 52°42' E 003°37'3016.4
2014-Oct-18 07:12N 53°04' E 004°12'1416.0
2014-Oct-18 06:22N 53°14' E 004°26'1615.2
2014-Oct-18 05:20N 53°28' E 004°38'1215.0
2014-Oct-18 04:33N 53°33' E 004°56'1514.6
2014-Oct-18 03:34N 53°37' E 005°19'1414.0
2014-Oct-18 02:33N 53°42' E 005°41'1514.0
2014-Oct-18 01:31N 53°47' E 006°05'1414.4
2014-Oct-18 00:33N 53°51' E 006°27'3815.3
2014-Oct-17 22:06N 53°60' E 007°29'915.6
2014-Oct-17 21:33N 54°02' E 007°43'1615.7
2014-Oct-17 20:33N 54°01' E 008°10'1616.0
2014-Oct-17 19:33N 53°58' E 008°37'1312.7
2014-Oct-17 18:33N 53°51' E 008°55'1211.7
2014-Oct-17 17:33N 53°53' E 009°14'1312.8
2014-Oct-17 16:33N 53°43' E 009°28'1111.2
2014-Oct-17 15:33N 53°34' E 009°40'9 9.0
2014-Oct-17 14:33N 53°32' E 009°55'0 0.5
2014-Oct-17 13:32N 53°32' E 009°56'0 0.0
2014-Oct-17 12:29N 53°32' E 009°56'0 0.0
2014-Oct-17 11:29N 53°32' E 009°56'0 0.0
2014-Oct-17 10:29N 53°32' E 009°56'0 0.0
2014-Oct-17 09:32N 53°32' E 009°56'0 0.0
2014-Oct-17 08:32N 53°32' E 009°56'0 0.0
2014-Oct-17 07:32N 53°32' E 009°56'0 0.0
2014-Oct-17 06:29N 53°32' E 009°56'0 0.0
2014-Oct-17 05:26N 53°32' E 009°56'0 0.0
2014-Oct-17 04:29N 53°32' E 009°56'0 0.0
2014-Oct-17 03:32N 53°32' E 009°56'0 0.0
2014-Oct-17 02:29N 53°32' E 009°56'0 0.0
2014-Oct-17 01:29N 53°32' E 009°56'0 0.0
2014-Oct-17 00:32N 53°32' E 009°56'0 0.0
2014-Oct-16 23:32N 53°32' E 009°56'0 0.0
2014-Oct-16 22:29N 53°32' E 009°56'0 0.0
2014-Oct-16 21:29N 53°32' E 009°56'0 0.0
2014-Oct-16 20:29N 53°32' E 009°56'0 0.0
2014-Oct-16 19:29N 53°32' E 009°56'0 0.0
2014-Oct-16 18:29N 53°32' E 009°56'0 0.0
2014-Oct-16 17:29N 53°32' E 009°56'0 0.0
2014-Oct-16 16:32N 53°32' E 009°56'0 0.0
2014-Oct-16 15:32N 53°32' E 009°56'0 0.0
2014-Oct-16 14:32N 53°32' E 009°56'0 0.0
2014-Oct-16 13:32N 53°32' E 009°56'0 0.0
2014-Oct-16 12:32N 53°32' E 009°56'0 0.0
2014-Oct-16 11:32N 53°32' E 009°56'0 0.0
2014-Oct-16 10:32N 53°32' E 009°56'0 0.0
2014-Oct-16 09:32N 53°32' E 009°56'0 0.0
2014-Oct-16 08:32N 53°32' E 009°56'0 0.0
2014-Oct-16 07:32N 53°32' E 009°56'0 0.0
2014-Oct-16 06:29N 53°32' E 009°56'0 0.0
2014-Oct-16 05:32N 53°32' E 009°56'0 0.5
2014-Oct-16 04:33N 53°32' E 009°55'6 5.9
2014-Oct-16 03:33N 53°34' E 009°45'10 9.6
2014-Oct-16 02:34N 53°39' E 009°31'1211.9
2014-Oct-16 01:33N 53°49' E 009°22'1010.0
2014-Oct-16 00:33N 53°53' E 009°06'1111.3
2014-Oct-15 23:34N 53°50' E 008°47'1110.6
2014-Oct-15 22:33N 53°58' E 008°35'9 9.3
2014-Oct-15 21:34N 53°60' E 008°19'9 8.7
2014-Oct-15 20:33N 53°59' E 008°04'1413.5
2014-Oct-15 19:33N 53°56' E 007°42'1613.5
2014-Oct-15 18:23N 53°52' E 007°16'1113.6
2014-Oct-15 17:33N 53°50' E 006°57'1413.6
2014-Oct-15 16:32N 53°47' E 006°35'1313.5
2014-Oct-15 15:33N 53°43' E 006°13'1313.5
2014-Oct-15 14:34N 53°39' E 005°52'1313.5
2014-Oct-15 13:33N 53°34' E 005°30'1413.5
2014-Oct-15 12:34N 53°30' E 005°09'1413.5
2014-Oct-15 11:33N 53°26' E 004°47'1313.3
2014-Oct-15 10:33N 53°14' E 004°35'1413.6
2014-Oct-15 09:32N 53°03' E 004°23'1313.7
2014-Oct-15 08:33N 52°50' E 004°14'1414.0
2014-Oct-15 07:33N 52°39' E 003°59'1514.0
2014-Oct-15 06:31N 52°29' E 003°42'5614.3
2014-Oct-15 02:34N 51°48' E 002°39'1414.3
2014-Oct-15 01:33N 51°38' E 002°23'1414.2
2014-Oct-15 00:33N 51°27' E 002°09'1110.6
2014-Oct-14 23:32N 51°16' E 002°05'1111.5
2014-Oct-14 22:33N 51°09' E 001°51'1211.8
2014-Oct-14 21:33N 51°02' E 001°36'1212.0
2014-Oct-14 20:33N 50°52' E 001°25'3012.4
2014-Oct-14 18:09N 50°30' E 000°54'813.4
2014-Oct-14 17:33N 50°27' E 000°42'1313.3
2014-Oct-14 16:33N 50°24' E 000°22'  
2014-Oct-11 23:33N 38°18' W 009°42'1413.8
2014-Oct-11 22:34N 38°04' W 009°39'1514.5
2014-Oct-11 21:34N 37°50' W 009°36'1413.7
2014-Oct-11 20:33N 37°37' W 009°32'  
Track history (hours):
 
Tides and Currents Weather Stations Pressure Air Temp Water Temp Dewpoint Dewpoint Depression Visibility Wind Speed Wind Dir Waves Ship Positions

MSC Turchia

Last reported at 2014-Oct-21 19:32 UTC. Time now 2014-Oct-21 20:09 UTC.
Position N 51°30' E 000°30'.

Length 276 m; beam 40 m; draft 14 m.

Type: Ship (hazmat cat D). MMSI: 636091212.

Date/timePositionNaut miles runAvg speedWind from/ knotsBaromVisibWave heightAir tempDewpointWater temp
2014-Oct-21 19:32N 51°30' E 000°30'0 0.0
2014-Oct-21 18:32N 51°30' E 000°30'0 0.0
2014-Oct-21 17:32N 51°30' E 000°30'0 0.0
2014-Oct-21 16:32N 51°30' E 000°30'0 0.0
2014-Oct-21 15:32N 51°30' E 000°30'0 0.0
2014-Oct-21 14:32N 51°30' E 000°30'0 0.0
2014-Oct-21 13:32N 51°30' E 000°30'0 0.0
2014-Oct-21 12:32N 51°30' E 000°30'0 0.0
2014-Oct-21 11:32N 51°30' E 000°30'0 0.0
2014-Oct-21 10:32N 51°30' E 000°30'0 0.0
2014-Oct-21 09:32N 51°30' E 000°30'0 0.0
2014-Oct-21 08:32N 51°30' E 000°30'0 0.0
2014-Oct-21 07:32N 51°30' E 000°30'0 0.0
2014-Oct-21 06:29N 51°30' E 000°30'0 0.0
2014-Oct-21 05:32N 51°30' E 000°30'0 0.0
2014-Oct-21 04:32N 51°30' E 000°30'0 0.0
2014-Oct-21 03:32N 51°30' E 000°30'0 0.0
2014-Oct-21 02:32N 51°30' E 000°30'0 0.0
2014-Oct-21 01:32N 51°30' E 000°30'2 2.0
2014-Oct-21 00:33N 51°30' E 000°33'1010.3
2014-Oct-20 23:33N 51°29' E 000°50'1212.4
2014-Oct-20 22:33N 51°33' E 001°09'1515.4
2014-Oct-20 21:33N 51°43' E 001°28'1312.9
2014-Oct-20 20:34N 51°54' E 001°39'1 1.1
2014-Oct-20 19:33N 51°54' E 001°41'0 0.0
2014-Oct-20 18:33N 51°54' E 001°41'0 0.1
2014-Oct-20 17:33N 51°54' E 001°41'0 0.3
2014-Oct-20 16:33N 51°54' E 001°41'0 0.1
2014-Oct-20 15:33N 51°54' E 001°41'0 0.0
2014-Oct-20 14:33N 51°55' E 001°41'0 0.1
2014-Oct-20 13:33N 51°54' E 001°41'5 4.7
2014-Oct-20 12:33N 51°52' E 001°48'1313.1
2014-Oct-20 11:33N 51°39' E 001°50'1211.8
2014-Oct-20 10:33N 51°29' E 001°59'1211.7
2014-Oct-20 09:33N 51°22' E 002°14'1110.5
2014-Oct-20 08:32N 51°23' E 002°31'1010.1
2014-Oct-20 07:33N 51°25' E 002°47'1616.1
2014-Oct-20 06:34N 51°24' E 003°12'1515.0
2014-Oct-20 05:33N 51°26' E 003°36'9 9.5
2014-Oct-20 04:34N 51°21' E 003°49'1010.5
2014-Oct-20 03:33N 51°22' E 004°06'7 6.8
2014-Oct-20 02:33N 51°20' E 004°16'0 0.0
2014-Oct-20 01:33N 51°20' E 004°16'0 0.0
2014-Oct-20 00:33N 51°20' E 004°16'0 0.0
2014-Oct-19 23:33N 51°20' E 004°16'0 0.0
2014-Oct-19 22:33N 51°20' E 004°16'0 0.0
2014-Oct-19 21:33N 51°20' E 004°16'0 0.0
2014-Oct-19 20:33N 51°20' E 004°16'0 0.0
2014-Oct-19 19:33N 51°20' E 004°16'0 0.0
2014-Oct-19 18:33N 51°20' E 004°16'0 0.0
2014-Oct-19 17:33N 51°20' E 004°16'0 0.0
2014-Oct-19 16:33N 51°20' E 004°16'0 0.0
2014-Oct-19 15:33N 51°20' E 004°16'0 0.0
2014-Oct-19 14:33N 51°20' E 004°16'0 0.0
2014-Oct-19 13:33N 51°20' E 004°16'0 0.0
2014-Oct-19 12:33N 51°20' E 004°16'0 0.0
2014-Oct-19 11:33N 51°20' E 004°16'0 0.0
2014-Oct-19 10:33N 51°20' E 004°16'0 0.0
2014-Oct-19 09:33N 51°20' E 004°16'0 0.0
2014-Oct-19 08:33N 51°20' E 004°16'0 0.0
2014-Oct-19 07:33N 51°20' E 004°16'0 0.0
2014-Oct-19 06:33N 51°20' E 004°16'0 0.0
2014-Oct-19 05:33N 51°20' E 004°16'0 0.0
2014-Oct-19 04:34N 51°20' E 004°16'0 0.0
2014-Oct-19 03:33N 51°20' E 004°16'0 0.0
2014-Oct-19 02:33N 51°20' E 004°16'0 0.0
2014-Oct-19 01:34N 51°20' E 004°16'0 0.0
2014-Oct-19 00:33N 51°20' E 004°16'0 0.0
2014-Oct-18 23:33N 51°20' E 004°16'0 0.0
2014-Oct-18 22:33N 51°20' E 004°16'0 0.0
2014-Oct-18 21:33N 51°20' E 004°16'0 0.0
2014-Oct-18 20:33N 51°20' E 004°16'0 0.0
2014-Oct-18 19:33N 51°20' E 004°16'2 2.1
2014-Oct-18 18:33N 51°22' E 004°14'9 9.4
2014-Oct-18 17:34N 51°26' E 004°01'1111.3
2014-Oct-18 16:34N 51°23' E 003°43'8 8.4
2014-Oct-18 15:33N 51°25' E 003°30'1615.5
2014-Oct-18 14:33N 51°24' E 003°05'1111.2
2014-Oct-18 13:33N 51°35' E 003°10'1414.0
2014-Oct-18 12:33N 51°49' E 003°14'1615.9
2014-Oct-18 11:33N 52°04' E 003°22'3915.7
2014-Oct-18 09:04N 52°42' E 003°37'3016.4
2014-Oct-18 07:12N 53°04' E 004°12'1416.0
2014-Oct-18 06:22N 53°14' E 004°26'1615.2
2014-Oct-18 05:20N 53°28' E 004°38'1215.0
2014-Oct-18 04:33N 53°33' E 004°56'1514.6
2014-Oct-18 03:34N 53°37' E 005°19'1414.0
2014-Oct-18 02:33N 53°42' E 005°41'1514.0
2014-Oct-18 01:31N 53°47' E 006°05'1414.4
2014-Oct-18 00:33N 53°51' E 006°27'3815.3
2014-Oct-17 22:06N 53°60' E 007°29'915.6
2014-Oct-17 21:33N 54°02' E 007°43'1615.7
2014-Oct-17 20:33N 54°01' E 008°10'1616.0
2014-Oct-17 19:33N 53°58' E 008°37'1312.7
2014-Oct-17 18:33N 53°51' E 008°55'1211.7
2014-Oct-17 17:33N 53°53' E 009°14'1312.8
2014-Oct-17 16:33N 53°43' E 009°28'1111.2
2014-Oct-17 15:33N 53°34' E 009°40'9 9.0
2014-Oct-17 14:33N 53°32' E 009°55'0 0.5
2014-Oct-17 13:32N 53°32' E 009°56'0 0.0
2014-Oct-17 12:29N 53°32' E 009°56'0 0.0
2014-Oct-17 11:29N 53°32' E 009°56'0 0.0
2014-Oct-17 10:29N 53°32' E 009°56'0 0.0
2014-Oct-17 09:32N 53°32' E 009°56'0 0.0
2014-Oct-17 08:32N 53°32' E 009°56'0 0.0
2014-Oct-17 07:32N 53°32' E 009°56'0 0.0
2014-Oct-17 06:29N 53°32' E 009°56'0 0.0
2014-Oct-17 05:26N 53°32' E 009°56'0 0.0
2014-Oct-17 04:29N 53°32' E 009°56'0 0.0
2014-Oct-17 03:32N 53°32' E 009°56'0 0.0
2014-Oct-17 02:29N 53°32' E 009°56'0 0.0
2014-Oct-17 01:29N 53°32' E 009°56'0 0.0
2014-Oct-17 00:32N 53°32' E 009°56'0 0.0
2014-Oct-16 23:32N 53°32' E 009°56'0 0.0
2014-Oct-16 22:29N 53°32' E 009°56'0 0.0
2014-Oct-16 21:29N 53°32' E 009°56'0 0.0
2014-Oct-16 20:29N 53°32' E 009°56'0 0.0
2014-Oct-16 19:29N 53°32' E 009°56'0 0.0
2014-Oct-16 18:29N 53°32' E 009°56'0 0.0
2014-Oct-16 17:29N 53°32' E 009°56'0 0.0
2014-Oct-16 16:32N 53°32' E 009°56'0 0.0
2014-Oct-16 15:32N 53°32' E 009°56'0 0.0
2014-Oct-16 14:32N 53°32' E 009°56'0 0.0
2014-Oct-16 13:32N 53°32' E 009°56'0 0.0
2014-Oct-16 12:32N 53°32' E 009°56'0 0.0
2014-Oct-16 11:32N 53°32' E 009°56'0 0.0
2014-Oct-16 10:32N 53°32' E 009°56'0 0.0
2014-Oct-16 09:32N 53°32' E 009°56'0 0.0
2014-Oct-16 08:32N 53°32' E 009°56'0 0.0
2014-Oct-16 07:32N 53°32' E 009°56'0 0.0
2014-Oct-16 06:29N 53°32' E 009°56'0 0.0
2014-Oct-16 05:32N 53°32' E 009°56'0 0.5
2014-Oct-16 04:33N 53°32' E 009°55'6 5.9
2014-Oct-16 03:33N 53°34' E 009°45'10 9.6
2014-Oct-16 02:34N 53°39' E 009°31'1211.9
2014-Oct-16 01:33N 53°49' E 009°22'1010.0
2014-Oct-16 00:33N 53°53' E 009°06'1111.3
2014-Oct-15 23:34N 53°50' E 008°47'1110.6
2014-Oct-15 22:33N 53°58' E 008°35'9 9.3
2014-Oct-15 21:34N 53°60' E 008°19'9 8.7
2014-Oct-15 20:33N 53°59' E 008°04'1413.5
2014-Oct-15 19:33N 53°56' E 007°42'1613.5
2014-Oct-15 18:23N 53°52' E 007°16'1113.6
2014-Oct-15 17:33N 53°50' E 006°57'1413.6
2014-Oct-15 16:32N 53°47' E 006°35'1313.5
2014-Oct-15 15:33N 53°43' E 006°13'1313.5
2014-Oct-15 14:34N 53°39' E 005°52'1313.5
2014-Oct-15 13:33N 53°34' E 005°30'1413.5
2014-Oct-15 12:34N 53°30' E 005°09'1413.5
2014-Oct-15 11:33N 53°26' E 004°47'1313.3
2014-Oct-15 10:33N 53°14' E 004°35'1413.6
2014-Oct-15 09:32N 53°03' E 004°23'1313.7
2014-Oct-15 08:33N 52°50' E 004°14'1414.0
2014-Oct-15 07:33N 52°39' E 003°59'1514.0
2014-Oct-15 06:31N 52°29' E 003°42'5614.3
2014-Oct-15 02:34N 51°48' E 002°39'1414.3
2014-Oct-15 01:33N 51°38' E 002°23'1414.2
2014-Oct-15 00:33N 51°27' E 002°09'1110.6
2014-Oct-14 23:32N 51°16' E 002°05'1111.5
2014-Oct-14 22:33N 51°09' E 001°51'1211.8
2014-Oct-14 21:33N 51°02' E 001°36'1212.0
2014-Oct-14 20:33N 50°52' E 001°25'3012.4
2014-Oct-14 18:09N 50°30' E 000°54'813.4
2014-Oct-14 17:33N 50°27' E 000°42'1313.3
2014-Oct-14 16:33N 50°24' E 000°22'  
2014-Oct-11 23:33N 38°18' W 009°42'1413.8
2014-Oct-11 22:34N 38°04' W 009°39'1514.5
2014-Oct-11 21:34N 37°50' W 009°36'1413.7
2014-Oct-11 20:33N 37°37' W 009°32'  

Dump ship's entire track history